Flight Track Log - Related Links

Times and Time Zones

All times are in EST time to prevent confusion due to time zone crossing. See the CSN6878 flight status page for this flight to view local times or setup timezone preferences in your user account.

Time Position Orientation Groundspeed Altitude Reporting Facility
EST Latitude Longitude Course Direction KTS MPH feet Rate Location/Type
Fri 11:22:00 PM 41.6032 81.1219 61° Northeast  Level Estimated
Fri 11:23:00 PM 41.6594 81.2611 62° Northeast  Level Estimated
Fri 11:24:00 PM 41.7154 81.4006 62° Northeast  Level Estimated
Fri 11:25:00 PM 41.7713 81.5403 62° Northeast  Level Estimated
Fri 11:26:00 PM 41.8270 81.6802 62° Northeast  Level Estimated
Fri 11:27:00 PM 41.8825 81.8204 62° Northeast  Level Estimated
Fri 11:28:00 PM 41.9379 81.9608 62° Northeast  Level Estimated
Fri 11:29:00 PM 41.9930 82.1015 62° Northeast  Level Estimated
Fri 11:30:00 PM 42.0480 82.2424 62° Northeast  Level Estimated
Fri 11:31:00 PM 42.1029 82.3836 62° Northeast  Level Estimated
Fri 11:32:00 PM 42.1576 82.5250 62° Northeast  Level Estimated
Fri 11:33:00 PM 42.2120 82.6667 63° Northeast  Level Estimated
Fri 11:34:00 PM 42.2664 82.8086 63° Northeast  Level Estimated
Fri 11:35:00 PM 42.3205 82.9507 63° Northeast  Level Estimated
Fri 11:36:00 PM 42.3745 83.0931 63° Northeast  Level Estimated
Fri 11:37:00 PM 42.4282 83.2357 63° Northeast  Level Estimated
Fri 11:38:00 PM 42.4819 83.3786 63° Northeast  Level Estimated
Fri 11:39:00 PM 42.5353 83.5217 63° Northeast  Level Estimated
Fri 11:40:00 PM 42.5886 83.6651 63° Northeast  Level Estimated
Fri 11:41:00 PM 42.6416 83.8087 63° Northeast  Level Estimated
Fri 11:42:00 PM 42.6945 83.9525 63° Northeast  Level Estimated
Fri 11:43:00 PM 42.7472 84.0966 63° Northeast  Level Estimated
Fri 11:44:00 PM 42.7998 84.2410 64° Northeast  Level Estimated
Fri 11:45:00 PM 42.8521 84.3856 64° Northeast  Level Estimated
Fri 11:46:00 PM 42.9043 84.5304 64° Northeast  Level Estimated
Fri 11:47:00 PM 42.9563 84.6755 64° Northeast  Level Estimated
Fri 11:48:00 PM 43.0081 84.8208 64° Northeast  Level Estimated
Fri 11:49:00 PM 43.0597 84.9664 64° Northeast  Level Estimated
Fri 11:50:00 PM 43.1111 85.1122 64° Northeast  Level Estimated
Fri 11:51:00 PM 43.1624 85.2582 64° Northeast  Level Estimated
Fri 11:52:00 PM 43.2135 85.4045 64° Northeast  Level Estimated
Fri 11:53:00 PM 43.2643 85.5511 64° Northeast  Level Estimated
Fri 11:54:00 PM 43.3150 85.6979 65° Northeast  Level Estimated
Fri 11:55:00 PM 43.3655 85.8449 65° Northeast  Level Estimated
Fri 11:56:00 PM 43.4158 85.9922 65° Northeast  Level Estimated
Fri 11:57:00 PM 43.4660 86.1397 65° Northeast  Level Estimated
Fri 11:58:00 PM 43.5159 86.2875 65° Northeast  Level Estimated
Fri 11:59:00 PM 43.5656 86.4355 65° Northeast  Level Estimated
Sat 12:00:00 AM 43.6152 86.5838 65° Northeast  Level Estimated
Sat 12:01:00 AM 43.6646 86.7323 65° Northeast  Level Estimated
Sat 12:02:00 AM 43.7137 86.8810 65° Northeast  Level Estimated
Sat 12:03:00 AM 43.7627 87.0300 65° Northeast  Level Estimated
Sat 12:04:00 AM 43.8115 87.1792 66° East  Level Estimated
Sat 12:05:00 AM 43.8601 87.3287 66° East  Level Estimated
Sat 12:06:00 AM 43.9071 87.4742 66° East  Level Estimated
Sat 12:07:00 AM 43.9071 87.4742 144° Southeast  Level Estimated
Sat 12:08:00 AM 43.9071 87.4742 144° Southeast  Level Estimated
Sat 12:09:00 AM 43.9071 87.4742 144° Southeast  Level Estimated
Sat 12:10:00 AM 43.9071 87.4742 144° Southeast  Level Estimated
Sat 12:11:00 AM 43.9071 87.4742 144° Southeast  Level Estimated
Sat 12:12:00 AM 43.9071 87.4742 144° Southeast  Level Estimated
Sat 12:13:00 AM 43.9071 87.4742 144° Southeast  Level Estimated
Sat 12:14:00 AM 43.9071 87.4742 144° Southeast  Level Estimated
Sat 12:15:00 AM 43.9071 87.4742 144° Southeast  Level Estimated
Sat 12:16:00 AM 43.9071 87.4742 144° Southeast  Level Estimated
Sat 12:17:00 AM 43.9071 87.4742 144° Southeast  Level Estimated

Login

Don't have an account? Register now (free) for customized features, flight alerts, and more!